Time;durP1;ratioP1;P1;durP2;ratioP2;P2;SDS_P1;SDS_P2;PMS_P1;PMS_P2;Temp;Humidity;BMP_temperature;BMP_pressure;BME280_temperature;BME280_humidity;BME280_pressure;Samples;Min_cycle;Max_cycle;Signal;HPM_P1;HPM_P2
2023/04/29 00:02:07;;;;;;;;;;;9.00;99.90;;;;;;5072747;28;19925;-69
2023/04/29 00:04:33;;;;;;;;;;;8.80;99.90;;;;;;5069958;28;19935;-70
2023/04/29 00:06:59;;;;;;;;;;;8.80;99.90;;;;;;5072546;28;20054;-69
2023/04/29 00:09:24;;;;;;;;;;;8.80;99.90;;;;;;5072422;28;20015;-69
2023/04/29 00:11:50;;;;;;;;;;;8.80;99.90;;;;;;5072642;28;20437;-70
2023/04/29 00:14:16;;;;;;;;;;;8.80;99.90;;;;;;5051043;28;19934;-69
2023/04/29 00:16:41;;;;;;;;;;;8.80;99.90;;;;;;5052131;28;19924;-70
2023/04/29 00:19:07;;;;;;;;;;;8.80;99.90;;;;;;5051853;28;19979;-69
2023/04/29 00:21:32;;;;;;;;;;;8.80;99.90;;;;;;5050163;28;19928;-69
2023/04/29 00:23:58;;;;;;;;;;;8.80;99.90;;;;;;5071566;28;19999;-69
2023/04/29 00:26:24;;;;;;;;;;;8.70;99.90;;;;;;5059739;28;20255;-69
2023/04/29 00:28:50;;;;;;;;;;;8.70;99.90;;;;;;5072142;28;19946;-68
2023/04/29 00:31:15;;;;;;;;;;;8.70;99.90;;;;;;5071366;28;20418;-68
2023/04/29 00:33:41;;;;;;;;;;;8.70;99.90;;;;;;5071620;28;19939;-69
2023/04/29 00:36:07;;;;;;;;;;;8.70;99.90;;;;;;5071195;28;20297;-68
2023/04/29 00:38:33;;;;;;;;;;;8.70;99.90;;;;;;5072377;28;19925;-70
2023/04/29 00:40:58;;;;;;;;;;;8.60;99.90;;;;;;5072371;28;19925;-69
2023/04/29 00:43:24;;;;;;;;;;;8.70;99.90;;;;;;5047399;28;19924;-69
2023/04/29 00:45:49;;;;;;;;;;;8.70;99.90;;;;;;5052385;28;19925;-69
2023/04/29 00:48:15;;;;;;;;;;;8.60;99.90;;;;;;5066466;28;19983;-70
2023/04/29 00:50:41;;;;;;;;;;;8.60;99.90;;;;;;5071748;28;19931;-70
2023/04/29 00:53:07;;;;;;;;;;;8.70;99.90;;;;;;5071989;28;19986;-69
2023/04/29 00:55:32;;;;;;;;;;;8.60;99.90;;;;;;5075261;28;19931;-68
2023/04/29 00:57:58;;;;;;;;;;;8.60;99.90;;;;;;5075170;28;19925;-68
2023/04/29 01:00:25;;;;;;;;;;;8.60;99.90;;;;;;5074307;28;19924;-70
2023/04/29 01:02:51;;;;;;;;;;;8.60;99.90;;;;;;5057794;28;20228;-69
2023/04/29 01:05:17;;;;;;;;;;;8.60;99.90;;;;;;5064714;28;19924;-69
2023/04/29 01:07:56;;;;;;;;;;;8.60;99.90;;;;;;5073064;28;19931;-70
2023/04/29 01:10:27;;;;;;;;;;;8.50;99.90;;;;;;5075434;28;19931;-70
2023/04/29 01:12:53;;;;;;;;;;;8.60;99.90;;;;;;5071577;28;19925;-70
2023/04/29 01:15:31;;;;;;;;;;;8.60;99.90;;;;;;5064764;28;19928;-69
2023/04/29 01:18:03;;;;;;;;;;;8.50;99.90;;;;;;5075293;28;19931;-70
2023/04/29 01:20:29;;;;;;;;;;;8.60;99.90;;;;;;5073760;28;19928;-70
2023/04/29 01:22:55;;;;;;;;;;;8.50;99.90;;;;;;5062005;28;20020;-70
2023/04/29 01:25:21;;;;;;;;;;;8.50;99.90;;;;;;5037085;28;19968;-69
2023/04/29 01:27:58;;;;;;;;;;;8.60;99.90;;;;;;5069886;28;19931;-70
2023/04/29 01:30:31;;;;;;;;;;;8.50;99.90;;;;;;5074558;28;19924;-69
2023/04/29 01:33:15;;;;;;;;;;;8.50;99.90;;;;;;5040482;28;19999;-69
2023/04/29 01:35:46;;;;;;;;;;;8.50;99.90;;;;;;5062030;28;19932;-70
2023/04/29 01:38:17;;;;;;;;;;;8.50;99.90;;;;;;5074431;28;20007;-70
2023/04/29 01:40:47;;;;;;;;;;;8.40;99.90;;;;;;5054723;28;20047;-70
2023/04/29 01:43:14;;;;;;;;;;;8.60;99.90;;;;;;5054985;28;20007;-69
2023/04/29 01:45:40;;;;;;;;;;;8.40;99.90;;;;;;5055721;28;19924;-70
2023/04/29 01:48:06;;;;;;;;;;;8.40;99.90;;;;;;5059442;28;20435;-69
2023/04/29 01:50:32;;;;;;;;;;;8.30;99.90;;;;;;5062041;28;19986;-69
2023/04/29 01:52:57;;;;;;;;;;;8.20;99.90;;;;;;5070753;28;19976;-69
2023/04/29 01:55:23;;;;;;;;;;;8.30;99.90;;;;;;5056528;28;20062;-69
2023/04/29 01:57:48;;;;;;;;;;;8.20;99.90;;;;;;5071998;28;20341;-69
2023/04/29 02:00:14;;;;;;;;;;;8.20;99.90;;;;;;5062445;28;19932;-69
2023/04/29 02:02:39;;;;;;;;;;;8.10;99.90;;;;;;5062662;28;19924;-68
2023/04/29 02:05:05;;;;;;;;;;;8.20;99.90;;;;;;5074260;28;19924;-69
2023/04/29 02:07:30;;;;;;;;;;;8.10;99.90;;;;;;5073015;28;20007;-69
2023/04/29 02:09:56;;;;;;;;;;;8.00;99.90;;;;;;5074293;28;20381;-69
2023/04/29 02:12:22;;;;;;;;;;;8.00;99.90;;;;;;5051860;28;20362;-69
2023/04/29 02:14:51;;;;;;;;;;;8.10;99.90;;;;;;5054090;28;19925;-69
2023/04/29 02:17:16;;;;;;;;;;;8.00;99.90;;;;;;5073981;28;19924;-69
2023/04/29 02:19:42;;;;;;;;;;;7.90;99.90;;;;;;5073538;28;19925;-68
2023/04/29 02:22:08;;;;;;;;;;;7.90;99.90;;;;;;5072991;28;20352;-69
2023/04/29 02:24:34;;;;;;;;;;;7.90;99.90;;;;;;5073935;28;20376;-70
2023/04/29 02:26:59;;;;;;;;;;;7.80;99.90;;;;;;5073199;28;20460;-70
2023/04/29 02:29:26;;;;;;;;;;;7.80;99.90;;;;;;5069086;28;20012;-70
2023/04/29 02:31:51;;;;;;;;;;;7.80;99.90;;;;;;5073610;28;19936;-69
2023/04/29 02:34:17;;;;;;;;;;;7.80;99.90;;;;;;5055842;28;19924;-69
2023/04/29 02:36:42;;;;;;;;;;;7.80;99.90;;;;;;5068253;28;19942;-69
2023/04/29 02:39:08;;;;;;;;;;;7.80;99.90;;;;;;5073701;28;19947;-69
2023/04/29 02:41:33;;;;;;;;;;;7.80;99.90;;;;;;5073705;28;20004;-69
2023/04/29 02:43:59;;;;;;;;;;;7.70;99.90;;;;;;5066992;28;20393;-69
2023/04/29 02:46:24;;;;;;;;;;;7.70;99.90;;;;;;5053770;28;19925;-69
2023/04/29 02:48:50;;;;;;;;;;;7.80;99.90;;;;;;5065814;28;19974;-69
2023/04/29 02:51:15;;;;;;;;;;;7.80;99.90;;;;;;5073471;28;20421;-69
2023/04/29 02:53:41;;;;;;;;;;;7.80;99.90;;;;;;5060590;28;19925;-70
2023/04/29 02:56:06;;;;;;;;;;;7.80;99.90;;;;;;5070845;28;19947;-70
2023/04/29 02:58:32;;;;;;;;;;;7.90;99.90;;;;;;5053903;28;19932;-69
2023/04/29 03:00:57;;;;;;;;;;;7.90;99.90;;;;;;5055297;28;19925;-69
2023/04/29 03:03:23;;;;;;;;;;;7.90;99.90;;;;;;5073616;28;19925;-70
2023/04/29 03:05:49;;;;;;;;;;;7.90;99.90;;;;;;5072562;28;19936;-69
2023/04/29 03:08:14;;;;;;;;;;;8.00;99.90;;;;;;5071243;28;19924;-69
2023/04/29 03:10:40;;;;;;;;;;;8.00;99.90;;;;;;5073305;28;19931;-69
2023/04/29 03:13:06;;;;;;;;;;;8.00;99.90;;;;;;5072141;28;20368;-69
2023/04/29 03:15:32;;;;;;;;;;;8.10;99.90;;;;;;5073222;28;19995;-70
2023/04/29 03:18:00;;;;;;;;;;;8.10;99.90;;;;;;5067212;28;19924;-70
2023/04/29 03:20:29;;;;;;;;;;;8.10;99.90;;;;;;5072909;28;19928;-69
2023/04/29 03:22:54;;;;;;;;;;;8.20;99.90;;;;;;5068258;28;19932;-69
2023/04/29 03:25:20;;;;;;;;;;;8.10;99.90;;;;;;5053100;28;19932;-68
2023/04/29 03:27:46;;;;;;;;;;;8.10;99.90;;;;;;5064169;28;19925;-69
2023/04/29 03:30:11;;;;;;;;;;;8.20;99.90;;;;;;5066411;28;20411;-69
2023/04/29 03:32:37;;;;;;;;;;;8.10;99.90;;;;;;5064841;28;19924;-69
2023/04/29 03:35:03;;;;;;;;;;;8.20;99.90;;;;;;5073279;28;19929;-69
2023/04/29 03:37:29;;;;;;;;;;;8.20;99.90;;;;;;5072418;28;19924;-69
2023/04/29 03:39:54;;;;;;;;;;;8.20;99.90;;;;;;5049444;28;20004;-70
2023/04/29 03:42:20;;;;;;;;;;;8.20;99.90;;;;;;5035485;28;19968;-69
2023/04/29 03:44:45;;;;;;;;;;;8.20;99.90;;;;;;5052553;28;19924;-69
2023/04/29 03:47:12;;;;;;;;;;;8.50;99.90;;;;;;5072397;28;19924;-69
2023/04/29 03:49:38;;;;;;;;;;;8.30;99.90;;;;;;5053011;28;19983;-70
2023/04/29 03:52:03;;;;;;;;;;;8.30;99.90;;;;;;5053114;28;19932;-69
2023/04/29 03:54:29;;;;;;;;;;;8.30;99.90;;;;;;5066172;28;19931;-68
2023/04/29 03:56:55;;;;;;;;;;;8.30;99.90;;;;;;5059399;28;20290;-70
2023/04/29 03:59:21;;;;;;;;;;;8.30;99.90;;;;;;5056602;28;19924;-69
2023/04/29 04:01:46;;;;;;;;;;;8.30;99.90;;;;;;5072805;28;19928;-69
2023/04/29 04:04:12;;;;;;;;;;;8.40;99.90;;;;;;5058988;28;19933;-69
2023/04/29 04:06:38;;;;;;;;;;;8.20;99.90;;;;;;5052446;28;19940;-69
2023/04/29 04:09:03;;;;;;;;;;;8.30;99.90;;;;;;5060174;28;19924;-69
2023/04/29 04:11:29;;;;;;;;;;;8.40;99.90;;;;;;5072859;28;19947;-69
2023/04/29 04:13:54;;;;;;;;;;;8.40;99.90;;;;;;5072814;28;20003;-69
2023/04/29 04:16:20;;;;;;;;;;;8.30;99.90;;;;;;5058021;28;20373;-69
2023/04/29 04:18:45;;;;;;;;;;;8.30;99.90;;;;;;5067471;28;20405;-71
2023/04/29 04:21:11;;;;;;;;;;;8.30;99.90;;;;;;5066805;28;19936;-69
2023/04/29 04:23:39;;;;;;;;;;;8.30;99.90;;;;;;5054167;28;19978;-70
2023/04/29 04:26:05;;;;;;;;;;;8.30;99.90;;;;;;5061651;28;19925;-70
2023/04/29 04:28:31;;;;;;;;;;;8.40;99.90;;;;;;5052324;28;19994;-70
2023/04/29 04:30:57;;;;;;;;;;;8.30;99.90;;;;;;5056279;28;19925;-69
2023/04/29 04:33:23;;;;;;;;;;;8.40;99.90;;;;;;5060491;28;19979;-69
2023/04/29 04:35:48;;;;;;;;;;;8.30;99.90;;;;;;5075605;28;19924;-68
2023/04/29 04:38:14;;;;;;;;;;;8.30;99.90;;;;;;5058676;28;19924;-69
2023/04/29 04:40:40;;;;;;;;;;;8.30;99.90;;;;;;5074726;28;20374;-69
2023/04/29 04:43:05;;;;;;;;;;;8.40;99.90;;;;;;5040946;28;19931;-69
2023/04/29 04:45:31;;;;;;;;;;;8.40;99.90;;;;;;5055672;28;19925;-69
2023/04/29 04:47:56;;;;;;;;;;;8.30;99.90;;;;;;5057799;28;20370;-69
2023/04/29 04:50:22;;;;;;;;;;;8.30;99.90;;;;;;5055548;28;19925;-68
2023/04/29 04:52:47;;;;;;;;;;;8.40;99.90;;;;;;5055772;28;19917;-69
2023/04/29 04:55:13;;;;;;;;;;;8.40;99.90;;;;;;5066253;28;19928;-68
2023/04/29 04:57:38;;;;;;;;;;;8.40;99.90;;;;;;5064902;28;19925;-69
2023/04/29 05:00:04;;;;;;;;;;;8.40;99.90;;;;;;5058605;28;20392;-69
2023/04/29 05:02:30;;;;;;;;;;;8.40;99.90;;;;;;5063534;28;19950;-69
2023/04/29 05:04:55;;;;;;;;;;;8.50;99.90;;;;;;5076123;28;19925;-69
2023/04/29 05:07:21;;;;;;;;;;;8.40;99.90;;;;;;5076362;28;19951;-69
2023/04/29 05:09:46;;;;;;;;;;;8.40;99.90;;;;;;5055951;28;19924;-69
2023/04/29 05:12:12;;;;;;;;;;;8.40;99.90;;;;;;5056642;28;19947;-68
2023/04/29 05:14:37;;;;;;;;;;;8.40;99.90;;;;;;5070320;28;20322;-69
2023/04/29 05:17:03;;;;;;;;;;;8.40;99.90;;;;;;5055060;28;19925;-70
2023/04/29 05:19:28;;;;;;;;;;;8.50;99.90;;;;;;5055433;28;19939;-70
2023/04/29 05:21:54;;;;;;;;;;;8.40;99.90;;;;;;5071526;28;19924;-69
2023/04/29 05:24:20;;;;;;;;;;;8.50;99.90;;;;;;5056917;28;19925;-70
2023/04/29 05:26:45;;;;;;;;;;;8.50;99.90;;;;;;5072877;28;19931;-70
2023/04/29 05:29:11;;;;;;;;;;;8.50;99.90;;;;;;5074911;28;20377;-69
2023/04/29 05:31:37;;;;;;;;;;;8.50;99.90;;;;;;5073757;28;19931;-69
2023/04/29 05:34:03;;;;;;;;;;;8.60;99.90;;;;;;5055345;28;19924;-69
2023/04/29 05:36:29;;;;;;;;;;;8.60;99.90;;;;;;5071218;28;19931;-70
2023/04/29 05:38:54;;;;;;;;;;;8.70;99.90;;;;;;5037340;28;19925;-71
2023/04/29 05:41:20;;;;;;;;;;;8.60;99.90;;;;;;5053939;28;19956;-69
2023/04/29 05:43:46;;;;;;;;;;;8.70;99.90;;;;;;5049211;28;19931;-69
2023/04/29 05:46:11;;;;;;;;;;;8.70;99.90;;;;;;5037227;28;20247;-70
2023/04/29 05:48:37;;;;;;;;;;;8.70;99.90;;;;;;5041366;28;19925;-70
2023/04/29 05:51:03;;;;;;;;;;;8.80;99.90;;;;;;5074666;28;19931;-69
2023/04/29 05:53:28;;;;;;;;;;;8.80;99.90;;;;;;5059380;28;19925;-69
2023/04/29 05:55:54;;;;;;;;;;;8.90;99.90;;;;;;5062329;28;20381;-69
2023/04/29 05:58:19;;;;;;;;;;;8.90;99.90;;;;;;5074425;28;19924;-69
2023/04/29 06:00:45;;;;;;;;;;;8.80;99.90;;;;;;5070050;28;19928;-68
2023/04/29 06:03:11;;;;;;;;;;;9.00;99.90;;;;;;5073623;28;20003;-69
2023/04/29 06:05:36;;;;;;;;;;;9.00;99.90;;;;;;5061105;28;20513;-68
2023/04/29 06:08:03;;;;;;;;;;;9.00;99.90;;;;;;5053859;28;20027;-69
2023/04/29 06:10:28;;;;;;;;;;;9.10;99.90;;;;;;5037851;28;19939;-69
2023/04/29 06:12:54;;;;;;;;;;;9.10;99.90;;;;;;5055937;28;20385;-68
2023/04/29 06:15:19;;;;;;;;;;;9.10;99.90;;;;;;5061768;28;20362;-68
2023/04/29 06:17:46;;;;;;;;;;;9.10;99.90;;;;;;5054600;28;20322;-68
2023/04/29 06:20:11;;;;;;;;;;;9.20;99.90;;;;;;5057433;28;20002;-69
2023/04/29 06:22:37;;;;;;;;;;;9.30;99.90;;;;;;5071229;28;20374;-69
2023/04/29 06:25:02;;;;;;;;;;;9.60;99.90;;;;;;5060231;28;19977;-68
2023/04/29 06:27:28;;;;;;;;;;;10.00;99.90;;;;;;5073893;28;19924;-69
2023/04/29 06:29:54;;;;;;;;;;;10.50;99.90;;;;;;5073716;28;20243;-69
2023/04/29 06:32:20;;;;;;;;;;;10.90;99.90;;;;;;5053696;28;19925;-69
2023/04/29 06:34:45;;;;;;;;;;;11.20;99.90;;;;;;5036187;28;20401;-69
2023/04/29 06:37:11;;;;;;;;;;;11.60;99.90;;;;;;5068021;28;19924;-70
2023/04/29 06:39:36;;;;;;;;;;;11.80;99.90;;;;;;5060387;28;19925;-68
2023/04/29 06:42:02;;;;;;;;;;;12.10;99.90;;;;;;5073665;28;19931;-69
2023/04/29 06:44:28;;;;;;;;;;;12.00;99.90;;;;;;5073475;28;20294;-68
2023/04/29 06:46:53;;;;;;;;;;;11.80;99.90;;;;;;5063466;28;19925;-68
2023/04/29 06:49:19;;;;;;;;;;;11.70;99.90;;;;;;5070293;28;19988;-68
2023/04/29 06:51:44;;;;;;;;;;;11.50;99.90;;;;;;5073305;28;19932;-69
2023/04/29 06:54:10;;;;;;;;;;;11.50;99.90;;;;;;5069666;28;19925;-68
2023/04/29 06:56:35;;;;;;;;;;;11.40;99.90;;;;;;5068178;28;19924;-68
2023/04/29 06:59:01;;;;;;;;;;;11.40;99.90;;;;;;5073011;28;19983;-68
2023/04/29 07:01:26;;;;;;;;;;;11.40;99.90;;;;;;5071788;28;19931;-69
2023/04/29 07:03:52;;;;;;;;;;;11.40;99.90;;;;;;5071453;28;19925;-69
2023/04/29 07:06:17;;;;;;;;;;;11.30;99.90;;;;;;5047068;28;19925;-68
2023/04/29 07:08:43;;;;;;;;;;;11.30;99.90;;;;;;5053090;28;20314;-68
2023/04/29 07:11:08;;;;;;;;;;;11.40;99.90;;;;;;5064449;28;19929;-69
2023/04/29 07:13:34;;;;;;;;;;;11.40;99.90;;;;;;5072718;28;19924;-68
2023/04/29 07:15:59;;;;;;;;;;;11.40;99.90;;;;;;5063235;28;19931;-69
2023/04/29 07:18:25;;;;;;;;;;;11.30;99.90;;;;;;5070496;28;19971;-69
2023/04/29 07:20:51;;;;;;;;;;;11.40;99.90;;;;;;5072254;28;20022;-69
2023/04/29 07:23:17;;;;;;;;;;;11.50;99.90;;;;;;5072220;28;20014;-70
2023/04/29 07:25:42;;;;;;;;;;;11.50;99.90;;;;;;5071728;28;20050;-68
2023/04/29 07:28:08;;;;;;;;;;;11.60;99.90;;;;;;5056439;28;19924;-69
2023/04/29 07:30:34;;;;;;;;;;;11.70;99.90;;;;;;5052978;28;20327;-70
2023/04/29 07:33:00;;;;;;;;;;;11.70;99.90;;;;;;5068970;28;19931;-69
2023/04/29 07:35:26;;;;;;;;;;;11.90;99.90;;;;;;5072029;28;20342;-70
2023/04/29 07:37:52;;;;;;;;;;;11.70;99.90;;;;;;5053835;28;19925;-70
2023/04/29 07:40:17;;;;;;;;;;;11.70;99.90;;;;;;5070574;28;19939;-69
2023/04/29 07:42:43;;;;;;;;;;;11.80;99.90;;;;;;5068553;28;19925;-69
2023/04/29 07:45:08;;;;;;;;;;;11.80;99.90;;;;;;5072606;28;19925;-70
2023/04/29 07:47:34;;;;;;;;;;;11.90;99.90;;;;;;5071351;28;20019;-69
2023/04/29 07:49:59;;;;;;;;;;;11.90;99.90;;;;;;5052570;28;20022;-69
2023/04/29 07:52:25;;;;;;;;;;;11.90;99.90;;;;;;5057837;28;19925;-69
2023/04/29 07:54:51;;;;;;;;;;;12.00;99.90;;;;;;5071177;28;20342;-69
2023/04/29 07:57:16;;;;;;;;;;;12.10;99.90;;;;;;5072298;28;19928;-69
2023/04/29 07:59:42;;;;;;;;;;;12.20;99.90;;;;;;5063305;28;20612;-69
2023/04/29 08:02:07;;;;;;;;;;;12.20;99.90;;;;;;5052676;28;19924;-69
2023/04/29 08:04:33;;;;;;;;;;;12.20;99.90;;;;;;5073362;28;19924;-69
2023/04/29 08:06:58;;;;;;;;;;;12.30;99.90;;;;;;5076953;28;19924;-69
2023/04/29 08:09:24;;;;;;;;;;;12.40;99.90;;;;;;5073293;28;19932;-69
2023/04/29 08:11:49;;;;;;;;;;;12.40;99.90;;;;;;5038672;28;19932;-70
2023/04/29 08:14:15;;;;;;;;;;;12.40;99.90;;;;;;5067899;28;19925;-70
2023/04/29 08:16:41;;;;;;;;;;;12.50;99.90;;;;;;5025056;28;19925;-69
2023/04/29 08:19:06;;;;;;;;;;;12.40;99.90;;;;;;5056437;28;19931;-68
2023/04/29 08:21:32;;;;;;;;;;;12.50;99.90;;;;;;5071455;28;19924;-71
2023/04/29 08:23:57;;;;;;;;;;;12.50;99.90;;;;;;5075711;28;19924;-68
2023/04/29 08:26:23;;;;;;;;;;;12.50;99.90;;;;;;5059251;28;19975;-69
2023/04/29 08:28:48;;;;;;;;;;;12.60;99.90;;;;;;5070943;28;20026;-70
2023/04/29 08:31:18;;;;;;;;;;;12.70;99.90;;;;;;5075441;28;19968;-70
2023/04/29 08:33:43;;;;;;;;;;;12.70;99.90;;;;;;5075795;28;19967;-70
2023/04/29 08:36:09;;;;;;;;;;;12.80;99.90;;;;;;5075086;28;19959;-68
2023/04/29 08:38:34;;;;;;;;;;;12.70;99.90;;;;;;5068836;28;20294;-69
2023/04/29 08:41:00;;;;;;;;;;;12.80;99.90;;;;;;5076031;28;20015;-69
2023/04/29 08:43:25;;;;;;;;;;;12.80;99.90;;;;;;5071408;28;19925;-70
2023/04/29 08:45:52;;;;;;;;;;;12.80;99.90;;;;;;5052276;28;19931;-70
2023/04/29 08:48:17;;;;;;;;;;;12.80;99.90;;;;;;5074734;28;19924;-70
2023/04/29 08:50:43;;;;;;;;;;;12.90;99.90;;;;;;5073955;28;19978;-70
2023/04/29 08:53:10;;;;;;;;;;;13.00;99.90;;;;;;5075517;28;20401;-69
2023/04/29 08:55:41;;;;;;;;;;;13.10;99.90;;;;;;5074755;28;19960;-71
2023/04/29 08:58:07;;;;;;;;;;;13.00;99.90;;;;;;5075390;28;20011;-70
2023/04/29 09:00:33;;;;;;;;;;;13.00;99.90;;;;;;5074777;28;20030;-70
2023/04/29 09:02:59;;;;;;;;;;;12.90;99.90;;;;;;5074583;28;19928;-70
2023/04/29 09:05:26;;;;;;;;;;;13.00;99.90;;;;;;5065796;28;19925;-70
2023/04/29 09:07:52;;;;;;;;;;;13.20;99.90;;;;;;5055467;28;20055;-70
2023/04/29 09:10:17;;;;;;;;;;;13.10;99.90;;;;;;5069494;28;19975;-69
2023/04/29 09:12:43;;;;;;;;;;;13.20;99.90;;;;;;5065893;28;19925;-69
2023/04/29 09:15:09;;;;;;;;;;;13.30;99.90;;;;;;5074392;28;20293;-69
2023/04/29 09:17:38;;;;;;;;;;;13.40;99.90;;;;;;5074658;28;19924;-69
2023/04/29 09:20:22;;;;;;;;;;;13.30;99.90;;;;;;5066968;28;20047;-69
2023/04/29 09:22:51;;;;;;;;;;;13.40;99.90;;;;;;5076085;28;19928;-69
2023/04/29 09:25:17;;;;;;;;;;;13.40;99.90;;;;;;5074118;28;19925;-69
2023/04/29 09:27:42;;;;;;;;;;;13.40;99.90;;;;;;5074727;28;19931;-70
2023/04/29 09:30:09;;;;;;;;;;;13.50;99.90;;;;;;5063644;28;19924;-70
2023/04/29 09:32:35;;;;;;;;;;;13.60;99.90;;;;;;5058882;28;20124;-69
2023/04/29 09:35:19;;;;;;;;;;;13.50;99.90;;;;;;5020706;28;20007;-70
2023/04/29 09:37:45;;;;;;;;;;;13.60;99.90;;;;;;5070310;28;19932;-69
2023/04/29 09:40:29;;;;;;;;;;;13.70;99.90;;;;;;5055941;28;19925;-69
2023/04/29 09:42:55;;;;;;;;;;;13.70;99.90;;;;;;5068235;28;19944;-70
2023/04/29 09:45:36;;;;;;;;;;;13.70;99.90;;;;;;5053942;28;19952;-70
2023/04/29 09:48:03;;;;;;;;;;;13.90;99.90;;;;;;5073149;28;20332;-70
2023/04/29 09:50:29;;;;;;;;;;;14.00;99.90;;;;;;5068410;28;19925;-70
2023/04/29 09:52:55;;;;;;;;;;;13.90;99.90;;;;;;5074706;28;19977;-68
2023/04/29 09:55:20;;;;;;;;;;;13.80;99.90;;;;;;5073862;28;19925;-69
2023/04/29 09:57:46;;;;;;;;;;;13.80;99.90;;;;;;5074946;28;19931;-69
2023/04/29 10:00:13;;;;;;;;;;;14.00;99.90;;;;;;5066089;28;19925;-70
2023/04/29 10:02:40;;;;;;;;;;;14.10;99.90;;;;;;5074699;28;19932;-69
2023/04/29 10:05:09;;;;;;;;;;;14.00;99.90;;;;;;5073611;28;20366;-69
2023/04/29 10:07:38;;;;;;;;;;;14.10;99.90;;;;;;5043561;28;20302;-69
2023/04/29 10:10:05;;;;;;;;;;;14.20;99.90;;;;;;5058464;28;19924;-70
2023/04/29 10:12:32;;;;;;;;;;;14.30;99.90;;;;;;5055712;28;20018;-69
2023/04/29 10:15:16;;;;;;;;;;;14.20;99.90;;;;;;5074424;28;19924;-69
2023/04/29 10:17:44;;;;;;;;;;;14.30;99.90;;;;;;5074198;28;19970;-69
2023/04/29 10:20:12;;;;;;;;;;;14.30;99.90;;;;;;5057525;28;19983;-69
2023/04/29 10:22:41;;;;;;;;;;;14.60;99.90;;;;;;5072157;28;19928;-70
2023/04/29 10:25:09;;;;;;;;;;;14.70;99.90;;;;;;5054484;28;19924;-70
2023/04/29 10:27:36;;;;;;;;;;;14.70;99.90;;;;;;5074183;28;20002;-70
2023/04/29 10:30:03;;;;;;;;;;;14.90;99.90;;;;;;5073106;28;19974;-69
2023/04/29 10:32:29;;;;;;;;;;;15.20;99.90;;;;;;5073551;28;19925;-69
2023/04/29 10:34:56;;;;;;;;;;;15.40;98.70;;;;;;5054476;28;19981;-69
2023/04/29 10:37:23;;;;;;;;;;;15.40;98.10;;;;;;5073349;28;20367;-69
2023/04/29 10:40:07;;;;;;;;;;;15.30;97.80;;;;;;5073810;28;19931;-69
2023/04/29 10:42:36;;;;;;;;;;;15.30;97.30;;;;;;5065559;28;19930;-69
2023/04/29 10:45:20;;;;;;;;;;;15.50;95.80;;;;;;5073519;28;20399;-69
2023/04/29 10:48:01;;;;;;;;;;;15.80;93.90;;;;;;5065078;28;19925;-69
2023/04/29 10:50:27;;;;;;;;;;;16.00;91.50;;;;;;5071018;28;19924;-69
2023/04/29 10:52:56;;;;;;;;;;;16.10;90.90;;;;;;5055597;28;19924;-69
2023/04/29 10:55:22;;;;;;;;;;;16.10;90.20;;;;;;5061241;28;20325;-70
2023/04/29 10:57:48;;;;;;;;;;;16.20;90.50;;;;;;5073491;28;19924;-70
2023/04/29 11:00:26;;;;;;;;;;;16.30;92.00;;;;;;5064403;28;20012;-69
2023/04/29 11:02:53;;;;;;;;;;;16.50;90.70;;;;;;5059644;28;19931;-69
2023/04/29 11:05:28;;;;;;;;;;;16.70;84.90;;;;;;5055342;28;20401;-69
2023/04/29 11:08:15;;;;;;;;;;;16.70;87.40;;;;;;5072713;28;19924;-70
2023/04/29 11:10:41;;;;;;;;;;;16.70;84.00;;;;;;5053816;28;20357;-69
2023/04/29 11:13:25;;;;;;;;;;;16.50;81.60;;;;;;5072867;28;19964;-70
2023/04/29 11:15:51;;;;;;;;;;;16.70;87.40;;;;;;5072573;28;19979;-70
2023/04/29 11:18:17;;;;;;;;;;;17.10;86.90;;;;;;5070521;28;20348;-70
2023/04/29 11:21:05;;;;;;;;;;;17.40;83.00;;;;;;5072688;28;19962;-70
2023/04/29 11:23:37;;;;;;;;;;;17.20;80.00;;;;;;5071231;28;20053;-69
2023/04/29 11:26:03;;;;;;;;;;;17.10;83.00;;;;;;5037058;28;19932;-69
2023/04/29 11:28:29;;;;;;;;;;;17.10;83.00;;;;;;5065046;28;19940;-69
2023/04/29 11:30:55;;;;;;;;;;;17.40;82.80;;;;;;5063074;28;20381;-69
2023/04/29 11:33:21;;;;;;;;;;;17.40;84.40;;;;;;5054628;28;19970;-69
2023/04/29 11:35:46;;;;;;;;;;;17.60;85.10;;;;;;5055538;28;19948;-69
2023/04/29 11:38:12;;;;;;;;;;;17.70;87.70;;;;;;5052222;28;19932;-69
2023/04/29 11:40:56;;;;;;;;;;;17.80;85.60;;;;;;5053421;28;20413;-69
2023/04/29 11:43:23;;;;;;;;;;;17.80;84.70;;;;;;5053224;28;19931;-70
2023/04/29 11:45:50;;;;;;;;;;;17.70;82.00;;;;;;5073108;28;19924;-70
2023/04/29 11:48:19;;;;;;;;;;;17.60;86.20;;;;;;5063735;28;19924;-70
2023/04/29 11:50:48;;;;;;;;;;;17.90;86.30;;;;;;5063618;28;20024;-69
2023/04/29 11:53:14;;;;;;;;;;;18.20;87.70;;;;;;5065111;28;20378;-70
2023/04/29 11:55:43;;;;;;;;;;;18.40;86.10;;;;;;5054823;28;19925;-69
2023/04/29 11:58:09;;;;;;;;;;;18.70;81.30;;;;;;5067655;28;20339;-69
2023/04/29 12:00:35;;;;;;;;;;;18.40;83.30;;;;;;5046235;28;20019;-69
2023/04/29 12:03:00;;;;;;;;;;;18.00;85.50;;;;;;5067145;28;19947;-69
2023/04/29 12:05:26;;;;;;;;;;;18.00;82.60;;;;;;5072355;28;19925;-68
2023/04/29 12:07:53;;;;;;;;;;;17.90;83.10;;;;;;5069799;28;19928;-69
2023/04/29 12:10:20;;;;;;;;;;;18.00;83.90;;;;;;5051812;28;19982;-69
2023/04/29 12:12:46;;;;;;;;;;;18.00;83.70;;;;;;5069785;28;20394;-69
2023/04/29 12:15:12;;;;;;;;;;;18.10;83.70;;;;;;5072446;28;20383;-69
2023/04/29 12:17:38;;;;;;;;;;;18.30;83.00;;;;;;5072274;28;20009;-69
2023/04/29 12:20:04;;;;;;;;;;;18.30;83.50;;;;;;5070817;28;20393;-69
2023/04/29 12:22:33;;;;;;;;;;;18.10;80.20;;;;;;5058406;28;19925;-69
2023/04/29 12:24:58;;;;;;;;;;;18.10;84.30;;;;;;5052624;28;19929;-69
2023/04/29 12:27:25;;;;;;;;;;;18.00;79.10;;;;;;5038473;28;19932;-69
2023/04/29 12:29:51;;;;;;;;;;;18.00;80.50;;;;;;5052063;28;20035;-69
2023/04/29 12:32:17;;;;;;;;;;;18.10;76.80;;;;;;5052094;28;19971;-69
2023/04/29 12:34:44;;;;;;;;;;;18.00;76.70;;;;;;5052914;28;19953;-69
2023/04/29 12:37:11;;;;;;;;;;;18.10;74.90;;;;;;5036599;28;19931;-69
2023/04/29 12:39:37;;;;;;;;;;;18.20;72.40;;;;;;5070811;28;19928;-69
2023/04/29 12:42:03;;;;;;;;;;;18.30;72.90;;;;;;5054860;28;19929;-68
2023/04/29 12:44:36;;;;;;;;;;;18.80;77.30;;;;;;5059501;28;20015;-70
2023/04/29 12:47:12;;;;;;;;;;;18.90;73.70;;;;;;5052303;28;20394;-69
2023/04/29 12:49:40;;;;;;;;;;;19.10;74.30;;;;;;5052222;28;20038;-69
2023/04/29 12:52:09;;;;;;;;;;;19.40;76.50;;;;;;5056480;28;19932;-69
2023/04/29 12:54:35;;;;;;;;;;;19.90;77.10;;;;;;5076118;28;19924;-69
2023/04/29 12:57:01;;;;;;;;;;;20.40;75.00;;;;;;5076179;28;19928;-69
2023/04/29 12:59:27;;;;;;;;;;;20.40;70.70;;;;;;5064511;28;20302;-69
2023/04/29 13:01:53;;;;;;;;;;;19.90;73.00;;;;;;5075065;28;19924;-69
2023/04/29 13:04:18;;;;;;;;;;;20.00;73.20;;;;;;5075685;28;19931;-69
2023/04/29 13:06:44;;;;;;;;;;;20.10;75.20;;;;;;5061258;28;20404;-69
2023/04/29 13:09:12;;;;;;;;;;;20.10;74.40;;;;;;5055391;28;20344;-69
2023/04/29 13:11:38;;;;;;;;;;;20.50;73.60;;;;;;5058790;28;19924;-69
2023/04/29 13:14:05;;;;;;;;;;;20.70;72.50;;;;;;5073905;28;19925;-69
2023/04/29 13:16:33;;;;;;;;;;;20.50;72.70;;;;;;5055995;28;19925;-70
2023/04/29 13:18:59;;;;;;;;;;;20.40;73.80;;;;;;5058122;28;20420;-69
2023/04/29 13:21:26;;;;;;;;;;;20.20;75.20;;;;;;5072206;28;19928;-69
2023/04/29 13:23:52;;;;;;;;;;;20.30;75.20;;;;;;5057224;28;20285;-69
2023/04/29 13:26:17;;;;;;;;;;;20.20;76.70;;;;;;5070045;28;19951;-69
2023/04/29 13:28:43;;;;;;;;;;;20.00;76.10;;;;;;5073643;28;20377;-69
2023/04/29 13:31:08;;;;;;;;;;;19.70;77.00;;;;;;5071469;28;19928;-69
2023/04/29 13:33:34;;;;;;;;;;;19.50;78.20;;;;;;5054975;28;20019;-69
2023/04/29 13:35:59;;;;;;;;;;;19.40;76.50;;;;;;5055792;28;19986;-68
2023/04/29 13:38:25;;;;;;;;;;;19.70;76.90;;;;;;5057052;28;19947;-68
2023/04/29 13:40:50;;;;;;;;;;;19.60;78.10;;;;;;5059209;28;20016;-68
2023/04/29 13:43:16;;;;;;;;;;;19.70;77.00;;;;;;5066999;28;20027;-69
2023/04/29 13:45:41;;;;;;;;;;;19.60;77.30;;;;;;5061568;28;19925;-69
2023/04/29 13:48:07;;;;;;;;;;;19.90;79.10;;;;;;5055013;28;20416;-69
2023/04/29 13:50:33;;;;;;;;;;;20.00;77.10;;;;;;5069592;28;19924;-69
2023/04/29 13:52:58;;;;;;;;;;;19.70;76.80;;;;;;5073483;28;19935;-70
2023/04/29 13:55:24;;;;;;;;;;;19.20;77.90;;;;;;5074812;28;20054;-69
2023/04/29 13:57:49;;;;;;;;;;;19.10;81.40;;;;;;5072647;28;19928;-69
2023/04/29 14:00:15;;;;;;;;;;;18.80;82.10;;;;;;5068845;28;19925;-71
2023/04/29 14:02:41;;;;;;;;;;;18.50;82.30;;;;;;5073941;28;19925;-69
2023/04/29 14:05:08;;;;;;;;;;;18.50;83.70;;;;;;5073626;28;19975;-69
2023/04/29 14:07:34;;;;;;;;;;;18.20;85.50;;;;;;5073158;28;19928;-69
2023/04/29 14:09:59;;;;;;;;;;;17.90;86.10;;;;;;5072095;28;19932;-69
2023/04/29 14:12:25;;;;;;;;;;;17.10;86.40;;;;;;5037701;28;19928;-70
2023/04/29 14:14:52;;;;;;;;;;;16.80;88.40;;;;;;5073908;28;19925;-70
2023/04/29 14:17:17;;;;;;;;;;;16.40;90.30;;;;;;5072669;28;20031;-69
2023/04/29 14:19:43;;;;;;;;;;;16.10;91.00;;;;;;5056844;28;20357;-69
2023/04/29 14:22:08;;;;;;;;;;;15.80;92.20;;;;;;5053987;28;20012;-69